Time;durP1;ratioP1;P1;durP2;ratioP2;P2;SDS_P1;SDS_P2;PMS_P1;PMS_P2;Temp;Humidity;BMP_temperature;BMP_pressure;BME280_temperature;BME280_humidity;BME280_pressure;Samples;Min_cycle;Max_cycle;Signal;HPM_P1;HPM_P2
2021/01/27 00:02:21;;;;;;;11.68;6.30;;;3.20;99.90;;;;;;4968245;28;20022;-74
2021/01/27 00:04:46;;;;;;;14.95;5.43;;;3.10;99.90;;;;;;4967925;28;20627;-74
2021/01/27 00:07:12;;;;;;;12.82;6.18;;;3.10;99.90;;;;;;4973522;28;20035;-74
2021/01/27 00:09:37;;;;;;;9.57;5.85;;;3.10;99.90;;;;;;4968091;28;20393;-74
2021/01/27 00:12:03;;;;;;;10.43;6.13;;;3.10;99.90;;;;;;4965942;28;20027;-74
2021/01/27 00:14:28;;;;;;;14.05;6.13;;;3.10;99.90;;;;;;4964882;28;20401;-74
2021/01/27 00:16:54;;;;;;;15.23;6.65;;;3.10;99.90;;;;;;4966864;28;20042;-74
2021/01/27 00:19:19;;;;;;;13.50;6.45;;;3.10;99.90;;;;;;4961728;28;20474;-74
2021/01/27 00:21:45;;;;;;;19.90;7.28;;;3.10;99.90;;;;;;4956468;28;20143;-74
2021/01/27 00:24:10;;;;;;;14.50;6.40;;;3.10;99.90;;;;;;4956841;28;20134;-73
2021/01/27 00:26:36;;;;;;;17.25;8.18;;;3.10;99.90;;;;;;4964898;28;20030;-74
2021/01/27 00:29:01;;;;;;;17.42;7.95;;;3.20;99.90;;;;;;4965515;28;20378;-74
2021/01/27 00:31:27;;;;;;;17.17;8.20;;;3.20;99.90;;;;;;4966755;28;20034;-74
2021/01/27 00:33:52;;;;;;;16.60;8.23;;;3.10;99.90;;;;;;4965936;28;20026;-74
2021/01/27 00:36:18;;;;;;;18.40;8.70;;;3.00;99.90;;;;;;4971552;28;20027;-74
2021/01/27 00:38:44;;;;;;;18.05;8.75;;;3.10;99.90;;;;;;4970125;28;20046;-74
2021/01/27 00:41:09;;;;;;;17.08;8.25;;;3.00;99.90;;;;;;4968484;28;20031;-74
2021/01/27 00:43:35;;;;;;;20.30;9.43;;;3.10;99.90;;;;;;4965100;28;20022;-74
2021/01/27 00:46:01;;;;;;;19.65;8.63;;;3.10;99.90;;;;;;4963996;28;20038;-74
2021/01/27 00:48:26;;;;;;;17.27;8.90;;;3.10;99.90;;;;;;4962008;28;20027;-74
2021/01/27 00:50:52;;;;;;;18.48;9.20;;;3.10;99.90;;;;;;4962162;28;20492;-75
2021/01/27 00:53:18;;;;;;;17.02;7.95;;;3.10;99.90;;;;;;4963910;28;20121;-75
2021/01/27 00:55:44;;;;;;;17.20;8.65;;;3.10;99.90;;;;;;4966437;28;20604;-74
2021/01/27 00:58:10;;;;;;;17.75;9.23;;;3.20;99.90;;;;;;4963363;28;20034;-74
2021/01/27 01:00:38;;;;;;;17.92;8.65;;;3.20;99.90;;;;;;4961945;28;20038;-74
2021/01/27 01:03:05;;;;;;;17.35;9.05;;;3.20;99.90;;;;;;4960248;28;20127;-75
2021/01/27 01:05:34;;;;;;;18.75;8.98;;;3.20;99.90;;;;;;4956884;28;20313;-75
2021/01/27 01:08:00;;;;;;;19.98;9.00;;;3.10;99.90;;;;;;4966901;28;20100;-75
2021/01/27 01:10:31;;;;;;;18.85;8.85;;;3.20;99.90;;;;;;4964519;28;20035;-74
2021/01/27 01:12:57;;;;;;;17.08;8.52;;;3.20;99.90;;;;;;4961329;28;20031;-74
2021/01/27 01:15:25;;;;;;;19.35;8.88;;;3.20;99.90;;;;;;4956726;28;20038;-74
2021/01/27 01:17:50;;;;;;;17.55;8.82;;;3.20;99.90;;;;;;4965053;28;20031;-75
2021/01/27 01:20:16;;;;;;;18.85;9.23;;;3.00;99.90;;;;;;4962893;28;20026;-75
2021/01/27 01:22:44;;;;;;;18.42;9.90;;;3.10;99.90;;;;;;4959905;28;20058;-74
2021/01/27 01:25:10;;;;;;;18.63;9.13;;;3.10;99.90;;;;;;4968100;28;20755;-74
2021/01/27 01:27:35;;;;;;;16.38;8.55;;;3.10;99.90;;;;;;4965484;28;20122;-75
2021/01/27 01:30:01;;;;;;;17.50;8.57;;;3.10;99.90;;;;;;4974095;28;20030;-74
2021/01/27 01:32:27;;;;;;;21.90;9.02;;;3.00;99.90;;;;;;4967173;28;20031;-73
2021/01/27 01:34:52;;;;;;;19.38;9.35;;;3.00;99.90;;;;;;4968427;28;20445;-74
2021/01/27 01:37:17;;;;;;;21.90;9.43;;;3.10;99.90;;;;;;4968696;28;20038;-73
2021/01/27 01:39:43;;;;;;;16.38;8.75;;;3.10;99.90;;;;;;4969539;28;20043;-73
2021/01/27 01:42:08;;;;;;;17.20;8.88;;;3.10;99.90;;;;;;4971053;28;20093;-73
2021/01/27 01:44:34;;;;;;;16.33;8.77;;;3.10;99.90;;;;;;4969329;28;20489;-73
2021/01/27 01:46:59;;;;;;;23.55;10.02;;;3.10;99.90;;;;;;4971358;28;20035;-73
2021/01/27 01:49:25;;;;;;;22.83;9.35;;;3.10;99.90;;;;;;4967539;28;20501;-74
2021/01/27 01:51:54;;;;;;;19.35;8.73;;;3.20;99.90;;;;;;4971067;28;20385;-73
2021/01/27 01:54:37;;;;;;;18.77;8.95;;;3.10;99.90;;;;;;4969813;28;20027;-73
2021/01/27 01:57:10;;;;;;;19.92;9.02;;;3.00;99.90;;;;;;4971187;28;20097;-74
2021/01/27 01:59:37;;;;;;;22.00;9.35;;;2.90;99.90;;;;;;4969926;28;20027;-74
2021/01/27 02:02:06;;;;;;;18.40;9.35;;;3.00;99.90;;;;;;4966718;28;20035;-74
2021/01/27 02:04:46;;;;;;;24.80;9.77;;;3.00;99.90;;;;;;4969540;28;20027;-74
2021/01/27 02:07:11;;;;;;;19.63;9.63;;;3.00;99.90;;;;;;4965749;28;20034;-75
2021/01/27 02:09:36;;;;;;;20.30;9.32;;;3.00;99.90;;;;;;4967831;28;20035;-74
2021/01/27 02:12:26;;;;;;;18.33;8.95;;;3.00;99.90;;;;;;4967010;28;20035;-75
2021/01/27 02:15:19;;;;;;;16.80;9.13;;;2.90;99.90;;;;;;4961440;28;20367;-74
2021/01/27 02:17:51;;;;;;;20.30;9.07;;;2.90;99.90;;;;;;4968004;28;20481;-74
2021/01/27 02:21:02;;;;;;;16.88;8.82;;;3.00;99.90;;;;;;4965586;28;20029;-74
2021/01/27 02:23:46;;;;;;;18.88;8.23;;;2.90;99.90;;;;;;4967691;28;20046;-73
2021/01/27 02:26:21;;;;;;;15.40;8.30;;;3.00;99.90;;;;;;4968963;28;20082;-73
2021/01/27 02:29:17;;;;;;;16.05;8.02;;;3.00;99.90;;;;;;4966128;28;20135;-73
2021/01/27 02:32:08;;;;;;;17.55;7.93;;;2.90;99.90;;;;;;4962568;28;20029;-73
2021/01/27 02:34:52;;;;;;;17.80;8.40;;;2.90;99.90;;;;;;4967990;28;20027;-73
2021/01/27 02:37:23;;;;;;;19.15;8.48;;;2.80;99.90;;;;;;4959866;28;20066;-74
2021/01/27 02:39:53;;;;;;;22.73;8.82;;;2.70;99.90;;;;;;4973483;28;20037;-73
2021/01/27 02:42:26;;;;;;;23.10;9.20;;;2.80;99.90;;;;;;4965546;28;20633;-73
2021/01/27 02:44:56;;;;;;;21.90;8.98;;;2.70;99.90;;;;;;4963071;28;20545;-73
2021/01/27 02:47:26;;;;;;;17.60;9.00;;;2.70;99.90;;;;;;4970050;28;20062;-73
2021/01/27 02:50:00;;;;;;;17.80;8.93;;;2.70;99.90;;;;;;4970429;28;20027;-73
2021/01/27 02:52:41;;;;;;;19.35;8.90;;;2.60;99.90;;;;;;4958556;28;20058;-73
2021/01/27 02:55:11;;;;;;;21.10;8.85;;;2.60;99.90;;;;;;4962854;28;20137;-74
2021/01/27 02:57:57;;;;;;;21.13;10.20;;;2.50;99.90;;;;;;4968079;28;20264;-73
2021/01/27 03:00:27;;;;;;;22.00;9.35;;;2.50;99.90;;;;;;4962032;28;20109;-73
2021/01/27 03:03:10;;;;;;;17.45;8.60;;;2.40;99.90;;;;;;4958369;28;20034;-74
2021/01/27 03:05:39;;;;;;;19.23;9.40;;;2.40;99.90;;;;;;4955311;28;20038;-73
2021/01/27 03:08:19;;;;;;;22.80;8.57;;;2.30;99.90;;;;;;4962586;28;20173;-73
2021/01/27 03:11:13;;;;;;;19.58;8.68;;;2.30;99.90;;;;;;4956493;28;20027;-73
2021/01/27 03:13:39;;;;;;;21.13;8.65;;;2.20;99.90;;;;;;4965448;28;20047;-73
2021/01/27 03:16:12;;;;;;;21.15;8.73;;;2.10;99.90;;;;;;4964624;28;20545;-73
2021/01/27 03:18:42;;;;;;;18.52;8.85;;;2.10;99.90;;;;;;4963142;28;20405;-73
2021/01/27 03:21:14;;;;;;;21.33;9.32;;;2.10;99.90;;;;;;4957903;28;20474;-73
2021/01/27 03:23:55;;;;;;;21.40;9.63;;;2.10;99.90;;;;;;4966347;28;20129;-73
2021/01/27 03:26:26;;;;;;;21.08;9.68;;;2.10;99.90;;;;;;4964523;28;20027;-73
2021/01/27 03:28:57;;;;;;;21.08;9.82;;;2.00;99.90;;;;;;4956456;28;20057;-73
2021/01/27 03:31:23;;;;;;;22.15;9.23;;;2.00;99.90;;;;;;4959634;28;20034;-73
2021/01/27 03:33:59;;;;;;;21.92;9.15;;;2.00;99.90;;;;;;4966476;28;20139;-73
2021/01/27 03:36:29;;;;;;;20.75;10.77;;;1.90;99.90;;;;;;4960311;28;20490;-73
2021/01/27 03:38:55;;;;;;;17.73;8.98;;;1.90;99.90;;;;;;4968464;28;20031;-73
2021/01/27 03:41:23;;;;;;;19.98;10.27;;;2.00;99.90;;;;;;4961285;28;20359;-73
2021/01/27 03:44:18;;;;;;;22.30;10.32;;;1.90;99.90;;;;;;4962500;28;20023;-74
2021/01/27 03:47:02;;;;;;;23.58;10.00;;;1.80;99.90;;;;;;4969654;28;20516;-73
2021/01/27 03:49:35;;;;;;;20.77;11.25;;;1.90;99.90;;;;;;4963759;28;20143;-73
2021/01/27 03:52:12;;;;;;;23.88;10.40;;;2.00;99.90;;;;;;4964619;28;20397;-74
2021/01/27 03:54:45;;;;;;;21.55;9.63;;;2.10;99.90;;;;;;4962376;28;20042;-73
2021/01/27 03:57:19;;;;;;;21.45;10.18;;;2.10;99.90;;;;;;4967905;28;20041;-73
2021/01/27 03:59:46;;;;;;;24.95;10.63;;;2.10;99.90;;;;;;4962640;28;20034;-73
2021/01/27 04:02:18;;;;;;;22.88;10.55;;;2.10;99.90;;;;;;4964873;28;20027;-74
2021/01/27 04:04:44;;;;;;;23.63;11.48;;;2.20;99.90;;;;;;4964514;28;20030;-74
2021/01/27 04:07:09;;;;;;;25.23;12.38;;;2.20;99.90;;;;;;4960396;28;20477;-73
2021/01/27 04:09:35;;;;;;;21.73;11.00;;;2.30;99.90;;;;;;4968633;28;20057;-73
2021/01/27 04:12:00;;;;;;;25.80;11.82;;;2.20;99.90;;;;;;4965681;28;20033;-74
2021/01/27 04:14:26;;;;;;;24.27;11.13;;;2.20;99.90;;;;;;4965184;28;20031;-74
2021/01/27 04:16:51;;;;;;;24.02;11.60;;;2.10;99.90;;;;;;4963167;28;20031;-73
2021/01/27 04:19:17;;;;;;;23.58;11.02;;;2.10;99.90;;;;;;4963610;28;20027;-74
2021/01/27 04:21:42;;;;;;;26.70;11.38;;;2.10;99.90;;;;;;4962002;28;20067;-74
2021/01/27 04:24:08;;;;;;;24.27;11.27;;;2.10;99.90;;;;;;4961153;28;20458;-73
2021/01/27 04:26:35;;;;;;;23.50;12.15;;;2.20;99.90;;;;;;4966480;28;20027;-73
2021/01/27 04:29:00;;;;;;;25.58;11.35;;;2.20;99.90;;;;;;4963551;28;20038;-73
2021/01/27 04:31:26;;;;;;;24.75;11.48;;;2.20;99.90;;;;;;4961199;28;20035;-73
2021/01/27 04:33:51;;;;;;;21.10;11.30;;;2.30;99.90;;;;;;4961368;28;20093;-74
2021/01/27 04:36:17;;;;;;;26.55;12.25;;;2.20;99.90;;;;;;4961620;28;20055;-73
2021/01/27 04:38:42;;;;;;;26.70;12.57;;;2.20;99.90;;;;;;4967319;28;20027;-73
2021/01/27 04:41:09;;;;;;;26.40;11.80;;;2.10;99.90;;;;;;4965168;28;20027;-74
2021/01/27 04:43:36;;;;;;;24.20;11.23;;;2.10;99.90;;;;;;4960402;28;20041;-73
2021/01/27 04:46:09;;;;;;;25.65;11.32;;;2.10;99.90;;;;;;4963944;28;20089;-73
2021/01/27 04:48:44;;;;;;;25.33;11.50;;;2.10;99.90;;;;;;4962215;28;20126;-73
2021/01/27 04:51:14;;;;;;;24.85;11.77;;;2.00;99.90;;;;;;4968078;28;20043;-73
2021/01/27 04:54:12;;;;;;;29.15;12.95;;;2.00;99.90;;;;;;4965508;28;20033;-73
2021/01/27 04:57:06;;;;;;;27.27;12.63;;;2.00;99.90;;;;;;4959222;28;20035;-74
2021/01/27 05:00:08;;;;;;;30.23;13.07;;;2.10;99.90;;;;;;4961619;28;20024;-73
2021/01/27 05:02:52;;;;;;;33.08;13.73;;;2.10;99.90;;;;;;4963911;28;20404;-74
2021/01/27 05:05:30;;;;;;;27.17;12.70;;;2.20;99.90;;;;;;4967287;28;20029;-74
2021/01/27 05:08:01;;;;;;;24.10;12.00;;;2.10;99.90;;;;;;4966033;28;20041;-74
2021/01/27 05:10:35;;;;;;;26.75;12.07;;;2.10;99.90;;;;;;4967434;28;20082;-73
2021/01/27 05:13:22;;;;;;;29.05;12.68;;;2.10;99.90;;;;;;4961537;28;20113;-74
2021/01/27 05:15:48;;;;;;;33.35;13.77;;;2.10;99.90;;;;;;4964264;28;20042;-73
2021/01/27 05:18:14;;;;;;;32.10;14.45;;;2.10;99.90;;;;;;4963192;28;20126;-73
2021/01/27 05:20:40;;;;;;;32.72;13.48;;;2.10;99.90;;;;;;4967861;28;20438;-74
2021/01/27 05:23:06;;;;;;;31.35;13.88;;;2.10;99.90;;;;;;4966354;28;20494;-74
2021/01/27 05:26:06;;;;;;;30.88;14.13;;;2.10;99.90;;;;;;4963436;28;20097;-74
2021/01/27 05:28:36;;;;;;;30.77;14.27;;;2.20;99.90;;;;;;4964009;28;20097;-74
2021/01/27 05:31:02;;;;;;;30.15;13.90;;;2.10;99.90;;;;;;4959016;28;20569;-74
2021/01/27 05:33:48;;;;;;;28.83;13.50;;;2.20;99.90;;;;;;4966936;28;20054;-73
2021/01/27 05:36:27;;;;;;;28.80;13.98;;;2.20;99.90;;;;;;4963086;28;20031;-73
2021/01/27 05:39:13;;;;;;;30.52;13.38;;;2.20;99.90;;;;;;4966134;28;20037;-73
2021/01/27 05:41:40;;;;;;;40.20;15.65;;;2.30;99.90;;;;;;4965188;28;20511;-74
2021/01/27 05:44:26;;;;;;;37.28;16.13;;;2.20;99.90;;;;;;4963159;28;20109;-74
2021/01/27 05:46:51;;;;;;;35.90;16.00;;;2.30;99.90;;;;;;4959654;28;20393;-74
2021/01/27 05:49:29;;;;;;;33.10;15.05;;;2.30;99.90;;;;;;4963261;28;20036;-73
2021/01/27 05:52:11;;;;;;;33.13;15.40;;;2.30;99.90;;;;;;4964063;28;20381;-73
2021/01/27 05:54:36;;;;;;;31.92;15.05;;;2.50;99.90;;;;;;4964382;28;20114;-73
2021/01/27 05:57:02;;;;;;;30.58;14.30;;;2.50;99.90;;;;;;4966351;28;20121;-73
2021/01/27 05:59:28;;;;;;;31.00;14.93;;;2.50;99.90;;;;;;4961834;28;20035;-73
2021/01/27 06:02:00;;;;;;;39.35;15.40;;;2.50;99.90;;;;;;4965797;28;20474;-73
2021/01/27 06:04:28;;;;;;;36.78;15.60;;;2.50;99.90;;;;;;4955396;28;20031;-74
2021/01/27 06:06:55;;;;;;;33.35;14.85;;;2.40;99.90;;;;;;4962608;28;20034;-73
2021/01/27 06:09:32;;;;;;;38.80;17.25;;;2.40;99.90;;;;;;4965220;28;20106;-74
2021/01/27 06:12:04;;;;;;;37.17;16.17;;;2.40;99.90;;;;;;4963582;28;20023;-74
2021/01/27 06:14:30;;;;;;;43.38;17.05;;;2.50;99.90;;;;;;4962885;28;20031;-74
2021/01/27 06:16:55;;;;;;;40.15;16.88;;;2.60;99.90;;;;;;4970034;28;20391;-74
2021/01/27 06:19:24;;;;;;;38.72;17.23;;;2.50;99.90;;;;;;4969503;28;20618;-74
2021/01/27 06:22:03;;;;;;;42.00;18.50;;;2.40;99.90;;;;;;4969776;28;20089;-74
2021/01/27 06:24:45;;;;;;;42.63;17.48;;;2.50;99.90;;;;;;4963621;28;20073;-73
2021/01/27 06:27:24;;;;;;;38.45;17.65;;;2.40;99.90;;;;;;4965444;28;20038;-74
2021/01/27 06:30:17;;;;;;;46.92;18.27;;;2.50;99.90;;;;;;4967339;28;20758;-74
2021/01/27 06:33:20;;;;;;;44.08;17.98;;;2.60;99.90;;;;;;4963029;28;20035;-74
2021/01/27 06:36:03;;;;;;;39.42;17.52;;;2.60;99.90;;;;;;4958617;28;20122;-74
2021/01/27 06:38:43;;;;;;;40.03;18.05;;;2.70;99.90;;;;;;4966575;28;20035;-74
2021/01/27 06:41:23;;;;;;;44.33;18.47;;;2.60;99.90;;;;;;4968778;28;20026;-73
2021/01/27 06:44:01;;;;;;;46.72;18.38;;;2.60;99.90;;;;;;4962839;28;20278;-74
2021/01/27 06:46:59;;;;;;;44.45;18.60;;;2.70;99.90;;;;;;4965291;28;20030;-74
2021/01/27 06:49:42;;;;;;;43.95;17.38;;;2.70;99.90;;;;;;4960836;28;20038;-74
2021/01/27 06:52:31;;;;;;;42.55;19.15;;;2.90;99.90;;;;;;4966418;28;20022;-74
2021/01/27 06:55:39;;;;;;;42.65;19.77;;;2.90;99.90;;;;;;4964553;28;20026;-77
2021/01/27 06:58:31;;;;;;;42.53;19.65;;;2.80;99.90;;;;;;4966263;28;20058;-77
2021/01/27 07:01:08;;;;;;;50.78;19.85;;;2.90;99.90;;;;;;4968887;28;20114;-81
2021/01/27 07:04:05;;;;;;;41.70;17.85;;;2.90;99.90;;;;;;4962693;28;20034;-77
2021/01/27 07:07:03;;;;;;;40.95;18.40;;;2.90;99.90;;;;;;4963212;28;20027;-81
2021/01/27 07:09:59;;;;;;;39.30;18.48;;;3.00;99.90;;;;;;4962421;28;20034;-78
2021/01/27 07:12:39;;;;;;;41.10;18.25;;;3.00;99.90;;;;;;4964996;28;20038;-78
2021/01/27 07:15:58;;;;;;;42.85;19.70;;;3.00;99.90;;;;;;4951480;28;20065;-77
2021/01/27 07:18:48;;;;;;;41.22;17.90;;;3.00;99.90;;;;;;4936409;29;20041;-78
2021/01/27 07:21:33;;;;;;;41.53;18.50;;;3.10;99.90;;;;;;4934311;29;20031;-77
2021/01/27 07:24:19;;;;;;;43.15;18.50;;;3.00;99.90;;;;;;4950677;28;20078;-78
2021/01/27 07:27:00;;;;;;;41.78;17.50;;;3.00;99.90;;;;;;4964993;28;20105;-77
2021/01/27 07:29:31;;;;;;;40.85;18.88;;;3.10;99.90;;;;;;4963100;28;20042;-77
2021/01/27 07:32:03;;;;;;;45.25;20.48;;;3.10;99.90;;;;;;4966509;28;20049;-76
2021/01/27 07:34:33;;;;;;;42.55;18.58;;;3.20;99.90;;;;;;4966192;28;20114;-77
2021/01/27 07:37:03;;;;;;;38.83;18.55;;;3.20;99.90;;;;;;4967537;28;20034;-76
2021/01/27 07:39:38;;;;;;;41.90;18.27;;;3.20;99.90;;;;;;4967650;28;20262;-76
2021/01/27 07:42:25;;;;;;;37.38;16.95;;;3.20;99.90;;;;;;4958216;28;20030;-76
2021/01/27 07:44:56;;;;;;;44.10;17.70;;;3.20;99.90;;;;;;4966820;28;20118;-76
2021/01/27 07:47:28;;;;;;;35.20;16.65;;;3.10;99.90;;;;;;4966105;28;20113;-76
2021/01/27 07:49:58;;;;;;;35.65;16.58;;;3.20;99.90;;;;;;4967385;28;20089;-76
2021/01/27 07:52:37;;;;;;;41.10;17.77;;;3.20;99.90;;;;;;4967530;28;20034;-76
2021/01/27 07:55:32;;;;;;;33.95;17.10;;;3.30;99.90;;;;;;4967100;28;20085;-76
2021/01/27 07:58:13;;;;;;;35.20;15.45;;;3.20;99.90;;;;;;4964795;28;20077;-76
2021/01/27 08:01:00;;;;;;;33.55;16.40;;;3.30;99.90;;;;;;4966007;28;20065;-75
2021/01/27 08:03:37;;;;;;;36.55;16.90;;;3.40;99.90;;;;;;4966141;28;20034;-75
2021/01/27 08:06:10;;;;;;;41.40;17.80;;;3.40;99.90;;;;;;4965255;28;20126;-76
2021/01/27 08:08:59;;;;;;;35.25;16.42;;;3.40;99.90;;;;;;4967919;28;20041;-76
2021/01/27 08:11:39;;;;;;;36.63;15.98;;;3.40;99.90;;;;;;4968017;28;20041;-75
2021/01/27 08:14:07;;;;;;;36.40;17.70;;;3.50;99.90;;;;;;4966359;28;20069;-76
2021/01/27 08:16:47;;;;;;;36.97;16.60;;;3.50;99.90;;;;;;4967832;28;20109;-75
2021/01/27 08:19:12;;;;;;;32.35;15.93;;;3.60;99.90;;;;;;4966125;28;20038;-73
2021/01/27 08:21:59;;;;;;;29.58;14.98;;;3.60;99.90;;;;;;4967908;28;20031;-72
2021/01/27 08:24:37;;;;;;;30.00;16.23;;;3.60;99.90;;;;;;4964493;28;20050;-73
2021/01/27 08:27:15;;;;;;;31.10;14.80;;;3.60;99.90;;;;;;4965855;28;20085;-80
2021/01/27 08:30:13;;;;;;;31.23;15.73;;;3.60;99.90;;;;;;4965595;28;20046;-76
2021/01/27 08:32:44;;;;;;;31.10;15.48;;;3.70;99.90;;;;;;4963878;28;20058;-76
2021/01/27 08:35:31;;;;;;;35.50;15.35;;;3.60;99.90;;;;;;4965695;28;20118;-75
2021/01/27 08:38:24;;;;;;;30.98;15.48;;;3.60;99.90;;;;;;4967038;28;20042;-73
2021/01/27 08:40:50;;;;;;;28.83;14.05;;;3.70;99.90;;;;;;4965373;28;20110;-76
2021/01/27 08:43:17;;;;;;;32.55;15.73;;;3.70;99.90;;;;;;4964331;28;20166;-77
2021/01/27 08:45:45;;;;;;;35.53;14.35;;;3.80;99.90;;;;;;4961890;28;20774;-77
2021/01/27 08:48:12;;;;;;;27.90;14.65;;;3.80;99.90;;;;;;4964558;28;20046;-76
2021/01/27 08:50:47;;;;;;;29.85;14.95;;;3.80;99.90;;;;;;4964596;28;20031;-75
2021/01/27 08:53:26;;;;;;;30.58;14.65;;;3.90;99.90;;;;;;4965497;28;20485;-75
2021/01/27 08:55:55;;;;;;;33.15;15.27;;;3.80;99.90;;;;;;4963776;28;20493;-75
2021/01/27 08:58:37;;;;;;;30.83;15.43;;;3.80;99.90;;;;;;4963099;28;20058;-74
2021/01/27 09:01:03;;;;;;;30.33;15.55;;;3.90;99.90;;;;;;4964664;28;20042;-74
2021/01/27 09:03:37;;;;;;;33.08;16.23;;;3.90;99.90;;;;;;4963453;28;20998;-74
2021/01/27 09:06:25;;;;;;;30.20;15.60;;;3.90;99.90;;;;;;4963698;28;20065;-74
2021/01/27 09:08:54;;;;;;;30.77;15.48;;;4.00;99.90;;;;;;4964881;28;20030;-75
2021/01/27 09:11:21;;;;;;;32.95;16.25;;;4.00;99.90;;;;;;4966213;28;20050;-75
2021/01/27 09:13:47;;;;;;;32.72;15.38;;;4.00;99.90;;;;;;4962484;28;20098;-74
2021/01/27 09:16:16;;;;;;;33.83;15.95;;;4.00;99.90;;;;;;4965353;28;20291;-74
2021/01/27 09:18:44;;;;;;;32.80;17.27;;;4.10;99.90;;;;;;4962892;28;20413;-77
2021/01/27 09:21:20;;;;;;;30.13;15.88;;;4.10;99.90;;;;;;4960620;28;20114;-76
2021/01/27 09:23:47;;;;;;;32.97;16.42;;;4.10;99.90;;;;;;4952492;28;20050;-76
2021/01/27 09:26:36;;;;;;;29.67;15.38;;;4.30;99.90;;;;;;4952424;28;20466;-77
2021/01/27 09:29:14;;;;;;;29.65;15.40;;;4.20;99.90;;;;;;4958445;28;20376;-76
2021/01/27 09:31:40;;;;;;;29.33;16.05;;;4.30;99.90;;;;;;4956212;28;20034;-76
2021/01/27 09:34:27;;;;;;;30.75;15.60;;;4.30;99.90;;;;;;4958775;28;20045;-75
2021/01/27 09:36:59;;;;;;;27.77;15.00;;;4.30;99.90;;;;;;4959270;28;20042;-77
2021/01/27 09:39:34;;;;;;;29.73;16.08;;;4.40;99.90;;;;;;4962473;28;20125;-76
2021/01/27 09:42:13;;;;;;;31.38;15.77;;;4.50;99.90;;;;;;4960594;28;20683;-76
2021/01/27 09:44:39;;;;;;;31.20;15.27;;;4.60;99.90;;;;;;4964463;28;20030;-76
2021/01/27 09:47:10;;;;;;;27.85;15.00;;;4.60;99.90;;;;;;4963973;28;20124;-78
2021/01/27 09:49:39;;;;;;;30.50;15.85;;;4.50;99.90;;;;;;4962619;28;20053;-77
2021/01/27 09:52:09;;;;;;;29.38;15.45;;;4.40;99.90;;;;;;4969210;28;20023;-77
2021/01/27 09:54:35;;;;;;;30.58;15.55;;;4.40;99.90;;;;;;4973648;28;20401;-78
2021/01/27 09:57:15;;;;;;;32.50;15.25;;;4.50;99.90;;;;;;4968954;28;20019;-76
2021/01/27 09:59:41;;;;;;;27.35;14.95;;;4.60;99.90;;;;;;4968784;28;20093;-76
2021/01/27 10:02:11;;;;;;;29.75;15.23;;;4.70;99.90;;;;;;4968694;28;20221;-79
2021/01/27 10:04:38;;;;;;;30.90;15.00;;;4.80;99.90;;;;;;4966848;28;20031;-76
2021/01/27 10:07:08;;;;;;;28.27;14.63;;;4.90;99.90;;;;;;4968990;28;20114;-79
2021/01/27 10:09:58;;;;;;;28.20;13.70;;;5.00;99.90;;;;;;4966594;28;20054;-75
2021/01/27 10:12:27;;;;;;;27.73;13.80;;;5.10;99.90;;;;;;4961989;28;20054;-76
2021/01/27 10:15:13;;;;;;;24.60;14.35;;;5.10;99.90;;;;;;4962661;28;20035;-79
2021/01/27 10:17:38;;;;;;;29.77;14.10;;;5.30;99.90;;;;;;4968748;28;20069;-79
2021/01/27 10:20:27;;;;;;;26.08;14.25;;;5.40;99.90;;;;;;4965177;28;20062;-78
2021/01/27 10:23:08;;;;;;;24.55;13.15;;;5.70;99.90;;;;;;4963555;28;20042;-78
2021/01/27 10:25:42;;;;;;;25.77;14.13;;;5.80;99.90;;;;;;4967137;28;20041;-77
2021/01/27 10:28:19;;;;;;;24.13;12.43;;;5.90;99.90;;;;;;4964749;28;20046;-78
2021/01/27 10:31:00;;;;;;;25.90;13.63;;;6.00;99.90;;;;;;4961564;28;20039;-78
2021/01/27 10:33:39;;;;;;;23.98;12.45;;;6.20;99.90;;;;;;4962815;28;20034;-78
2021/01/27 10:36:25;;;;;;;24.23;12.60;;;6.40;99.90;;;;;;4966134;28;22094;-78
2021/01/27 10:39:17;;;;;;;26.55;12.75;;;6.50;99.90;;;;;;4965582;28;20031;-79
2021/01/27 10:41:44;;;;;;;24.05;13.48;;;6.60;99.90;;;;;;4965166;28;20035;-79
2021/01/27 10:44:21;;;;;;;23.25;13.13;;;6.70;99.90;;;;;;4967972;28;20039;-78
2021/01/27 10:46:47;;;;;;;27.30;12.57;;;6.70;99.90;;;;;;4965996;28;20118;-78
2021/01/27 10:49:13;;;;;;;22.75;12.82;;;6.50;99.90;;;;;;4968115;28;20401;-78
2021/01/27 10:51:42;;;;;;;27.85;13.75;;;6.40;99.90;;;;;;4964575;28;20031;-79
2021/01/27 10:54:08;;;;;;;20.40;9.27;;;6.40;99.90;;;;;;4965923;28;20057;-78
2021/01/27 10:56:33;;;;;;;20.98;11.50;;;6.50;99.90;;;;;;4965064;28;20122;-78
2021/01/27 10:58:59;;;;;;;18.50;9.48;;;6.80;99.20;;;;;;4966813;28;20066;-77
2021/01/27 11:01:24;;;;;;;16.73;9.73;;;6.90;97.50;;;;;;4962332;28;20027;-78
2021/01/27 11:03:50;;;;;;;27.40;12.43;;;7.20;97.60;;;;;;4967138;28;20111;-78
2021/01/27 11:06:16;;;;;;;23.20;11.82;;;7.30;96.60;;;;;;4968446;28;20023;-77
2021/01/27 11:08:43;;;;;;;20.50;11.68;;;7.40;96.40;;;;;;4967145;28;20019;-77
2021/01/27 11:11:08;;;;;;;21.23;12.15;;;7.40;96.00;;;;;;4968142;28;20031;-77
2021/01/27 11:13:35;;;;;;;20.10;11.25;;;7.50;96.00;;;;;;4965455;28;20142;-78
2021/01/27 11:16:07;;;;;;;19.58;10.90;;;7.40;95.70;;;;;;4967692;28;20029;-79
2021/01/27 11:18:33;;;;;;;18.63;10.63;;;7.40;95.00;;;;;;4966751;28;20037;-78
2021/01/27 11:20:59;;;;;;;24.23;11.60;;;7.40;95.10;;;;;;4968793;28;20437;-78
2021/01/27 11:23:25;;;;;;;23.48;11.20;;;7.40;94.20;;;;;;4967854;28;20026;-78
2021/01/27 11:25:53;;;;;;;20.20;10.98;;;7.20;94.30;;;;;;4964378;28;20031;-77
2021/01/27 11:28:23;;;;;;;23.90;10.40;;;7.00;94.60;;;;;;4966151;28;20113;-78
2021/01/27 11:30:49;;;;;;;18.27;10.33;;;6.80;95.20;;;;;;4967451;28;20058;-78
2021/01/27 11:33:18;;;;;;;15.05;9.35;;;6.60;95.80;;;;;;4965064;28;20031;-78
2021/01/27 11:35:44;;;;;;;19.13;10.52;;;6.50;96.10;;;;;;4965741;28;20034;-78
2021/01/27 11:38:09;;;;;;;18.33;10.05;;;6.60;96.70;;;;;;4967784;28;20031;-78
2021/01/27 11:40:35;;;;;;;16.23;9.70;;;6.60;96.40;;;;;;4963352;28;20503;-77
2021/01/27 11:43:00;;;;;;;16.92;9.48;;;6.50;96.30;;;;;;4967730;28;20014;-77
2021/01/27 11:45:26;;;;;;;16.88;9.68;;;6.40;96.70;;;;;;4970386;28;20054;-77
2021/01/27 11:47:52;;;;;;;16.52;9.00;;;6.40;96.70;;;;;;4970021;28;20400;-77
2021/01/27 11:50:20;;;;;;;15.95;9.30;;;6.50;96.90;;;;;;4969270;28;20428;-77
2021/01/27 11:52:48;;;;;;;15.85;9.00;;;6.40;97.30;;;;;;4968457;28;20034;-79
2021/01/27 11:55:14;;;;;;;16.75;9.48;;;6.50;97.10;;;;;;4966231;28;20035;-78
2021/01/27 11:57:40;;;;;;;15.82;8.30;;;6.50;96.80;;;;;;4968093;28;20244;-79
2021/01/27 12:00:06;;;;;;;16.45;8.88;;;6.50;96.20;;;;;;4963887;28;20023;-81
2021/01/27 12:02:37;;;;;;;12.52;7.75;;;6.60;96.50;;;;;;4966630;28;20018;-81
2021/01/27 12:05:04;;;;;;;13.60;7.20;;;6.60;95.30;;;;;;4966189;28;20045;-81
2021/01/27 12:07:32;;;;;;;11.82;7.50;;;6.70;94.50;;;;;;4965287;28;20486;-81
2021/01/27 12:09:58;;;;;;;11.98;7.10;;;6.60;94.20;;;;;;4966604;28;20078;-82
2021/01/27 12:12:23;;;;;;;12.80;7.63;;;6.60;94.00;;;;;;4948852;28;20059;-81
2021/01/27 12:14:49;;;;;;;16.77;7.20;;;6.40;93.70;;;;;;4958225;28;20474;-81
2021/01/27 12:17:14;;;;;;;12.80;7.25;;;6.80;93.50;;;;;;4965831;28;20053;-81
2021/01/27 12:19:40;;;;;;;13.18;7.70;;;6.70;92.60;;;;;;4968605;28;20055;-81
2021/01/27 12:22:05;;;;;;;14.75;7.47;;;6.60;92.90;;;;;;4967707;28;20026;-81
2021/01/27 12:24:31;;;;;;;12.95;8.02;;;6.50;92.90;;;;;;4964417;28;20086;-81
2021/01/27 12:26:56;;;;;;;15.18;7.55;;;6.40;93.20;;;;;;4968486;28;20031;-81
2021/01/27 12:29:22;;;;;;;11.10;6.88;;;6.30;93.50;;;;;;4969168;28;20041;-81
2021/01/27 12:31:49;;;;;;;12.98;7.47;;;6.70;93.20;;;;;;4960903;28;20047;-81
2021/01/27 12:34:15;;;;;;;11.07;7.00;;;7.70;91.00;;;;;;4969238;28;20078;-81
2021/01/27 12:36:41;;;;;;;11.80;7.38;;;8.50;89.20;;;;;;4968932;28;20027;-81
2021/01/27 12:39:07;;;;;;;15.65;7.15;;;9.30;84.30;;;;;;4963975;28;20041;-80
2021/01/27 12:41:33;;;;;;;10.43;6.70;;;9.60;79.80;;;;;;4961839;28;20026;-81
2021/01/27 12:43:59;;;;;;;12.25;6.80;;;9.70;76.40;;;;;;4968856;28;20050;-82
2021/01/27 12:46:25;;;;;;;12.38;7.07;;;9.80;74.70;;;;;;4961650;28;20500;-81
2021/01/27 12:48:50;;;;;;;10.77;5.75;;;10.00;73.30;;;;;;4954129;28;20902;-81
2021/01/27 12:51:16;;;;;;;10.95;6.88;;;9.80;72.10;;;;;;4955481;28;20042;-80
2021/01/27 12:53:43;;;;;;;10.40;6.35;;;9.80;72.80;;;;;;4963109;28;20138;-81
2021/01/27 12:56:08;;;;;;;9.85;5.53;;;9.60;70.10;;;;;;4949856;28;20035;-80
2021/01/27 12:58:34;;;;;;;11.70;6.30;;;9.10;72.30;;;;;;4953789;28;20109;-79
2021/01/27 13:00:59;;;;;;;11.50;5.97;;;9.30;73.90;;;;;;4963327;28;20015;-79
2021/01/27 13:03:25;;;;;;;11.35;6.82;;;9.30;72.50;;;;;;4966424;28;20023;-79
2021/01/27 13:05:50;;;;;;;10.32;6.03;;;8.80;73.00;;;;;;4968639;28;20069;-79
2021/01/27 13:08:16;;;;;;;13.98;6.10;;;8.40;74.60;;;;;;4974626;28;20031;-79
2021/01/27 13:10:42;;;;;;;14.13;6.82;;;8.20;75.50;;;;;;4974296;28;20046;-79